Time;durP1;ratioP1;P1;durP2;ratioP2;P2;SDS_P1;SDS_P2;PMS_P1;PMS_P2;Temp;Humidity;BMP_temperature;BMP_pressure;BME280_temperature;BME280_humidity;BME280_pressure;Samples;Min_cycle;Max_cycle;Signal;HPM_P1;HPM_P2
2023/09/02 00:00:04;;;;;;;10.43;8.02;;;;;;;16.93;100.00;99667.72;4788456;29;20558;-88
2023/09/02 00:02:30;;;;;;;10.38;8.23;;;;;;;16.93;100.00;99670.34;4788324;29;20031;-88
2023/09/02 00:04:56;;;;;;;8.38;7.30;;;;;;;16.84;100.00;99655.22;4788494;29;20031;-89
2023/09/02 00:07:21;;;;;;;9.45;8.15;;;;;;;16.94;100.00;99676.47;4788781;29;20080;-89
2023/09/02 00:09:46;;;;;;;10.63;8.30;;;;;;;16.91;100.00;99680.16;4788770;29;20365;-89
2023/09/02 00:12:12;;;;;;;9.13;8.23;;;;;;;16.86;100.00;99682.28;4788381;29;20039;-88
2023/09/02 00:14:37;;;;;;;9.65;7.93;;;;;;;16.73;100.00;99660.44;4788292;29;20031;-89
2023/09/02 00:17:03;;;;;;;11.80;8.40;;;;;;;16.87;100.00;99675.22;4788246;29;20035;-89
2023/09/02 00:19:28;;;;;;;8.45;7.38;;;;;;;16.83;100.00;99671.97;4788280;29;20050;-89
2023/09/02 00:21:53;;;;;;;9.00;7.50;;;;;;;16.77;100.00;99654.00;4787972;29;20740;-88
2023/09/02 00:24:19;;;;;;;9.10;7.78;;;;;;;16.82;100.00;99665.03;4788475;29;20046;-88
2023/09/02 00:26:44;;;;;;;8.43;7.63;;;;;;;16.91;100.00;99681.94;4788215;29;20030;-89
2023/09/02 00:29:09;;;;;;;9.02;7.28;;;;;;;16.83;100.00;99666.72;4804679;29;20073;-89
2023/09/02 00:31:35;;;;;;;9.43;7.78;;;;;;;16.93;100.00;99685.28;4788137;29;20552;-89
2023/09/02 00:34:00;;;;;;;7.43;6.55;;;;;;;16.86;100.00;99676.19;4804474;29;20096;-89
2023/09/02 00:39:47;;;;;;;8.27;7.43;;;;;;;16.80;100.00;99663.44;4804578;29;20114;-88
2023/09/02 00:42:16;;;;;;;7.93;6.65;;;;;;;16.84;100.00;99680.69;4787993;29;20042;-89
2023/09/02 00:44:41;;;;;;;7.32;6.57;;;;;;;16.88;100.00;99688.25;4788197;29;20445;-88
2023/09/02 00:47:07;;;;;;;8.30;7.35;;;;;;;16.49;100.00;99630.59;4788108;29;20104;-88
2023/09/02 00:49:32;;;;;;;7.00;6.35;;;;;;;16.79;100.00;99686.28;4788149;29;20226;-90
2023/09/02 00:51:58;;;;;;;10.10;8.10;;;;;;;16.72;100.00;99669.22;4787958;29;20035;-88
2023/09/02 00:54:23;;;;;;;8.18;7.22;;;;;;;16.85;100.00;99699.00;4787963;29;20142;-88
2023/09/02 00:56:49;;;;;;;7.85;7.05;;;;;;;16.77;100.00;99682.06;4787859;29;20073;-89
2023/09/02 00:59:14;;;;;;;9.55;7.50;;;;;;;16.79;100.00;99686.28;4787971;29;20035;-89
2023/09/02 01:01:42;;;;;;;8.57;7.65;;;;;;;16.87;100.00;99706.78;4788228;29;20031;-88
2023/09/02 01:04:07;;;;;;;7.15;6.53;;;;;;;16.64;100.00;99663.69;4787957;29;20134;-89
2023/09/02 01:06:34;;;;;;;7.72;6.63;;;;;;;16.78;100.00;99695.13;4787889;29;20096;-88
2023/09/02 01:09:00;;;;;;;7.85;7.00;;;;;;;16.65;100.00;99678.53;4787784;29;20515;-89
2023/09/02 01:11:26;;;;;;;8.27;6.88;;;;;;;16.64;100.00;99685.59;4787894;29;20082;-89
2023/09/02 01:13:52;;;;;;;7.63;6.88;;;;;;;16.63;100.00;99697.03;4788016;29;20453;-88
2023/09/02 01:16:17;;;;;;;10.93;6.70;;;;;;;16.61;100.00;99698.09;4787889;29;20035;-88
2023/09/02 01:18:42;;;;;;;9.20;7.05;;;;;;;16.49;100.00;99681.41;4787795;29;20142;-88
2023/09/02 01:21:27;;;;;;;7.15;6.43;;;;;;;16.56;100.00;99705.44;4787863;29;20061;-88
2023/09/02 01:24:10;;;;;;;8.50;6.70;;;;;;;16.49;100.00;99701.59;4804166;29;20488;-88
2023/09/02 01:27:16;;;;;;;7.90;6.75;;;;;;;16.44;100.00;99704.53;4787807;29;20070;-89
2023/09/02 01:30:01;;;;;;;7.20;6.50;;;;;;;16.30;100.00;99694.13;4787881;29;20074;-88
2023/09/02 01:32:33;;;;;;;6.70;6.00;;;;;;;16.21;100.00;99685.09;4787980;29;20030;-88
2023/09/02 01:35:04;;;;;;;7.22;6.22;;;;;;;16.03;100.00;99662.75;4790436;29;20038;-89
2023/09/02 01:37:38;;;;;;;6.70;6.10;;;;;;;16.11;100.00;99677.03;4791103;29;20023;-89
2023/09/02 01:40:06;;;;;;;10.43;6.15;;;;;;;16.19;100.00;99705.41;4790906;29;20034;-88
2023/09/02 01:42:32;;;;;;;6.68;5.97;;;;;;;16.20;100.00;99705.28;4804086;29;20114;-89
2023/09/02 01:44:58;;;;;;;7.63;6.85;;;;;;;16.16;100.00;99693.31;4790781;29;20085;-89
2023/09/02 01:47:24;;;;;;;7.90;5.88;;;;;;;16.21;100.00;99711.38;4791000;29;20030;-89
2023/09/02 01:49:51;;;;;;;6.40;5.80;;;;;;;16.11;100.00;99691.94;4790877;29;20030;-88
2023/09/02 01:52:18;;;;;;;6.55;5.95;;;;;;;16.15;100.00;99699.50;4790570;29;20469;-88
2023/09/02 01:54:44;;;;;;;7.63;5.95;;;;;;;16.22;100.00;99713.06;4790492;29;20089;-88
2023/09/02 01:57:10;;;;;;;6.85;5.53;;;;;;;16.25;100.00;99712.00;4790394;29;20038;-89
2023/09/02 01:59:35;;;;;;;8.40;6.28;;;;;;;16.28;100.00;99717.06;4790891;29;20439;-89
2023/09/02 02:02:02;;;;;;;6.35;5.55;;;;;;;16.27;100.00;99712.75;4790461;29;20087;-88
2023/09/02 02:04:34;;;;;;;6.10;5.50;;;;;;;16.35;100.00;99723.56;4768204;30;20178;-88
2023/09/02 02:07:04;;;;;;;7.00;6.40;;;;;;;16.11;100.00;99678.81;4753370;30;20108;-89
2023/09/02 02:09:35;;;;;;;5.90;5.35;;;;;;;16.14;100.00;99678.63;4753473;30;20067;-89
2023/09/02 02:12:03;;;;;;;6.40;5.75;;;;;;;16.36;100.00;99707.69;4753376;30;20044;-89
2023/09/02 02:14:32;;;;;;;5.60;5.10;;;;;;;16.40;100.00;99708.34;4753016;30;20090;-89
2023/09/02 02:16:58;;;;;;;6.70;6.10;;;;;;;16.41;100.00;99718.72;4753480;30;20054;-88
2023/09/02 02:19:23;;;;;;;6.47;5.88;;;;;;;16.44;100.00;99720.31;4750231;30;20052;-89
2023/09/02 02:21:48;;;;;;;5.82;5.20;;;;;;;16.38;100.00;99704.97;4735688;30;20059;-88
2023/09/02 02:24:14;;;;;;;6.70;5.72;;;;;;;16.54;100.00;99729.22;4750207;30;20044;-89
2023/09/02 02:26:40;;;;;;;6.15;5.55;;;;;;;16.54;100.00;99723.13;4735420;30;20071;-89
2023/09/02 02:29:05;;;;;;;6.20;5.68;;;;;;;16.44;100.00;99715.06;4735360;30;20679;-89
2023/09/02 02:31:31;;;;;;;6.38;5.78;;;;;;;16.48;100.00;99711.28;4735603;30;20483;-88
2023/09/02 02:33:57;;;;;;;6.88;5.80;;;;;;;16.31;100.00;99694.03;4735424;30;20131;-89
2023/09/02 02:36:22;;;;;;;6.15;5.45;;;;;;;16.59;100.00;99740.25;4763565;30;20130;-89
2023/09/02 02:38:47;;;;;;;6.50;5.90;;;;;;;16.55;100.00;99730.06;4752855;30;20451;-90
2023/09/02 02:41:13;;;;;;;7.18;6.18;;;;;;;16.58;100.00;99743.00;4767693;30;20051;-88
2023/09/02 02:43:38;;;;;;;6.38;5.78;;;;;;;16.55;100.00;99741.41;4749984;30;20159;-89
2023/09/02 02:46:03;;;;;;;6.30;5.63;;;;;;;16.11;100.00;99665.69;4749387;30;20153;-88
2023/09/02 02:48:30;;;;;;;7.57;6.28;;;;;;;16.48;100.00;99719.16;4749919;30;20074;-88
2023/09/02 02:50:56;;;;;;;6.97;6.28;;;;;;;16.53;100.00;99729.34;4748084;30;20589;-89
2023/09/02 02:53:22;;;;;;;7.70;5.90;;;;;;;16.61;100.00;99745.44;4752718;30;20055;-88
2023/09/02 02:55:48;;;;;;;6.95;6.25;;;;;;;16.62;100.00;99737.44;4752854;30;20448;-89
2023/09/02 02:58:15;;;;;;;6.00;5.50;;;;;;;16.68;100.00;99757.19;4752551;30;20112;-89
2023/09/02 03:00:42;;;;;;;6.88;6.25;;;;;;;16.69;100.00;99748.38;4767616;30;20043;-88
2023/09/02 03:03:08;;;;;;;7.53;6.70;;;;;;;16.66;100.00;99751.19;4752373;30;20517;-88
2023/09/02 03:05:38;;;;;;;6.97;6.28;;;;;;;16.56;100.00;99742.25;4752763;30;20043;-89
2023/09/02 03:08:05;;;;;;;7.03;6.35;;;;;;;16.38;100.00;99721.56;4766050;30;20521;-88
2023/09/02 03:10:31;;;;;;;7.05;6.35;;;;;;;16.55;100.00;99754.56;4770230;30;20487;-89
2023/09/02 03:12:57;;;;;;;6.35;5.75;;;;;;;16.52;100.00;99744.28;4770304;30;20035;-89
2023/09/02 03:15:22;;;;;;;7.13;5.93;;;;;;;16.38;100.00;99716.31;4785183;29;20038;-89
2023/09/02 03:17:47;;;;;;;7.75;5.30;;;;;;;16.48;100.00;99726.22;4789389;29;20031;-88
2023/09/02 03:20:13;;;;;;;6.20;5.60;;;;;;;16.62;100.00;99747.94;4788902;29;20075;-89
2023/09/02 03:22:44;;;;;;;6.53;5.72;;;;;;;16.48;100.00;99734.09;4788932;29;20031;-89
2023/09/02 03:25:10;;;;;;;6.95;6.18;;;;;;;16.51;100.00;99745.22;4789225;29;20038;-89
2023/09/02 03:27:41;;;;;;;6.30;5.65;;;;;;;16.33;100.00;99709.69;4789282;29;20392;-89
2023/09/02 03:30:08;;;;;;;6.80;6.07;;;;;;;16.39;100.00;99719.78;4788967;29;20041;-89
2023/09/02 03:32:33;;;;;;;7.65;6.13;;;;;;;16.18;100.00;99674.78;4788858;29;20126;-89
2023/09/02 03:34:59;;;;;;;6.88;6.18;;;;;;;16.65;100.00;99758.25;4788932;29;20034;-89
2023/09/02 03:37:26;;;;;;;6.00;5.40;;;;;;;16.64;100.00;99756.59;4788936;29;20027;-88
2023/09/02 03:39:53;;;;;;;6.40;5.80;;;;;;;16.64;100.00;99758.34;4789168;29;20151;-89
2023/09/02 03:42:19;;;;;;;6.88;6.28;;;;;;;16.48;100.00;99740.19;4788681;29;20038;-88
2023/09/02 03:44:44;;;;;;;6.15;5.55;;;;;;;16.54;100.00;99766.03;4804987;29;20038;-88
2023/09/02 03:47:09;;;;;;;7.38;6.05;;;;;;;16.17;100.00;99717.78;4788647;29;20562;-89
2023/09/02 03:49:34;;;;;;;5.72;5.13;;;;;;;16.29;100.00;99758.16;4788851;29;20038;-88
2023/09/02 03:52:00;;;;;;;6.88;6.22;;;;;;;16.29;100.00;99761.63;4804973;29;20027;-88
2023/09/02 03:54:25;;;;;;;6.78;6.18;;;;;;;16.21;100.00;99762.16;4788604;29;20031;-88
2023/09/02 03:56:50;;;;;;;6.38;5.72;;;;;;;15.84;100.00;99719.13;4788239;29;20062;-88
2023/09/02 03:59:16;;;;;;;6.90;5.32;;;;;;;16.12;100.00;99768.03;4804683;29;20073;-89
2023/09/02 04:01:41;;;;;;;6.63;5.95;;;;;;;15.96;100.00;99762.13;4788708;29;20035;-88
2023/09/02 04:04:06;;;;;;;7.30;6.60;;;;;;;16.00;100.00;99771.47;4788466;29;20385;-89
2023/09/02 04:06:32;;;;;;;7.10;5.85;;;;;;;15.94;100.00;99777.16;4788544;29;20038;-88
2023/09/02 04:08:57;;;;;;;7.28;6.65;;;;;;;15.88;100.00;99767.03;4788858;29;20027;-89
2023/09/02 04:11:23;;;;;;;7.75;6.97;;;;;;;15.62;100.00;99734.63;4788643;29;20030;-89
2023/09/02 04:13:48;;;;;;;7.65;6.80;;;;;;;15.89;100.00;99784.50;4788661;29;20538;-88
2023/09/02 04:16:13;;;;;;;7.18;6.47;;;;;;;15.77;100.00;99774.81;4788347;29;20477;-89
2023/09/02 04:18:39;;;;;;;7.45;6.40;;;;;;;15.78;100.00;99771.25;4788208;29;20511;-89
2023/09/02 04:21:08;;;;;;;7.03;6.32;;;;;;;15.86;100.00;99785.56;4788450;29;20072;-89
2023/09/02 04:23:34;;;;;;;8.00;6.75;;;;;;;15.58;100.00;99741.84;4788462;29;20030;-88
2023/09/02 04:25:59;;;;;;;8.07;6.97;;;;;;;15.79;100.00;99788.66;4788540;29;20469;-88
2023/09/02 04:28:26;;;;;;;8.75;7.60;;;;;;;15.72;100.00;99790.88;4788361;29;20055;-89
2023/09/02 04:30:56;;;;;;;8.57;7.07;;;;;;;15.74;100.00;99791.59;4788217;29;20083;-89
2023/09/02 04:33:22;;;;;;;8.80;7.90;;;;;;;15.78;100.00;99808.84;4787952;29;20496;-89
2023/09/02 04:35:47;;;;;;;7.88;7.07;;;;;;;15.63;100.00;99786.16;4788474;29;20425;-88
2023/09/02 04:38:14;;;;;;;9.55;6.97;;;;;;;15.86;100.00;99818.84;4788313;29;20073;-89
2023/09/02 04:40:41;;;;;;;6.95;6.25;;;;;;;15.77;100.00;99790.56;4788206;29;20058;-88
2023/09/02 04:43:08;;;;;;;6.88;6.18;;;;;;;15.66;100.00;99757.13;4804538;29;20093;-89
2023/09/02 04:45:34;;;;;;;7.18;6.47;;;;;;;15.85;100.00;99783.88;4788246;29;20501;-89
2023/09/02 04:48:03;;;;;;;7.60;6.80;;;;;;;16.15;100.00;99815.13;4788303;29;20130;-89
2023/09/02 04:50:30;;;;;;;8.48;7.20;;;;;;;15.71;100.00;99742.75;4787988;29;20508;-89
2023/09/02 04:52:57;;;;;;;12.02;7.82;;;;;;;16.12;100.00;99806.59;4788328;29;20034;-89
2023/09/02 04:55:24;;;;;;;7.43;6.68;;;;;;;16.01;100.00;99795.97;4788009;29;20497;-88
2023/09/02 04:57:51;;;;;;;9.82;7.22;;;;;;;16.15;100.00;99836.16;4804802;29;20039;-89
2023/09/02 05:00:16;;;;;;;9.20;7.22;;;;;;;16.13;100.00;99816.16;4804496;29;20374;-89
2023/09/02 05:02:44;;;;;;;10.23;8.73;;;;;;;16.27;100.00;99824.00;4787669;29;20126;-89
2023/09/02 05:05:10;;;;;;;11.50;9.57;;;;;;;16.31;100.00;99832.50;4787910;29;20516;-89
2023/09/02 05:07:35;;;;;;;10.07;9.18;;;;;;;16.36;100.00;99822.53;4789097;29;20035;-88
2023/09/02 05:10:01;;;;;;;9.52;8.63;;;;;;;16.60;100.00;99830.50;4791679;29;20042;-89
2023/09/02 05:12:27;;;;;;;9.63;8.63;;;;;;;16.81;100.00;99815.06;4791204;29;20031;-89
2023/09/02 05:14:52;;;;;;;10.75;9.63;;;;;;;17.04;100.00;99821.34;4791330;29;20031;-88
2023/09/02 05:17:18;;;;;;;9.13;8.23;;;;;;;17.32;100.00;99839.50;4791007;29;20123;-88
2023/09/02 05:19:43;;;;;;;9.65;8.65;;;;;;;17.34;100.00;99829.69;4791532;29;20131;-89
2023/09/02 05:22:09;;;;;;;12.80;10.23;;;;;;;17.52;100.00;99848.59;4791483;29;20493;-88
2023/09/02 05:24:35;;;;;;;10.23;9.20;;;;;;;17.44;100.00;99841.25;4791092;29;20046;-88
2023/09/02 05:27:00;;;;;;;9.73;8.73;;;;;;;17.49;100.00;99848.84;4807614;29;20039;-89
2023/09/02 05:29:25;;;;;;;9.35;8.38;;;;;;;17.31;100.00;99824.63;4790956;29;20023;-89
2023/09/02 05:31:51;;;;;;;10.43;9.15;;;;;;;17.28;100.00;99826.69;4790748;29;20031;-89
2023/09/02 05:34:16;;;;;;;11.05;9.82;;;;;;;17.46;100.00;99855.16;4790906;29;20122;-88
2023/09/02 05:36:41;;;;;;;11.40;10.20;;;;;;;17.45;100.00;99850.00;4790876;29;20058;-89
2023/09/02 05:39:07;;;;;;;11.98;10.80;;;;;;;17.05;100.00;99786.19;4790965;29;20069;-88
2023/09/02 05:41:33;;;;;;;11.63;10.45;;;;;;;17.49;100.00;99862.00;4806971;29;20089;-88
2023/09/02 05:43:58;;;;;;;10.93;9.63;;;;;;;17.55;100.00;99866.81;4790712;29;20493;-89
2023/09/02 05:46:23;;;;;;;12.90;11.60;;;;;;;17.61;100.00;99863.75;4790531;29;20031;-88
2023/09/02 05:48:49;;;;;;;12.13;10.93;;;;;;;17.62;100.00;99857.53;4790849;29;20114;-88
2023/09/02 05:51:14;;;;;;;13.10;11.65;;;;;;;17.70;100.00;99862.25;4790553;29;20038;-88
2023/09/02 05:53:39;;;;;;;12.32;11.13;;;;;;;17.77;100.00;99855.59;4790887;29;20467;-89
2023/09/02 05:56:05;;;;;;;11.65;10.45;;;;;;;17.82;100.00;99853.44;4790756;29;20421;-90
2023/09/02 05:58:30;;;;;;;11.98;10.88;;;;;;;17.70;100.00;99820.09;4790263;29;20172;-88
2023/09/02 06:00:58;;;;;;;11.80;10.63;;;;;;;18.07;100.00;99875.34;4790605;29;20058;-89
2023/09/02 06:03:24;;;;;;;11.63;10.13;;;;;;;18.10;100.00;99868.06;4790557;29;20034;-89
2023/09/02 06:05:49;;;;;;;15.48;10.85;;;;;;;18.16;100.00;99872.03;4790730;29;20031;-89
2023/09/02 06:08:15;;;;;;;12.10;10.80;;;;;;;18.19;100.00;99872.66;4790464;29;20023;-89
2023/09/02 06:10:44;;;;;;;11.65;10.45;;;;;;;18.16;100.00;99854.44;4790258;29;20481;-89
2023/09/02 06:13:09;;;;;;;12.50;11.20;;;;;;;18.11;100.00;99848.66;4790368;29;20035;-89
2023/09/02 06:15:34;;;;;;;13.93;10.95;;;;;;;18.18;100.00;99854.31;4789970;29;20096;-90
2023/09/02 06:18:00;;;;;;;13.60;11.13;;;;;;;18.32;100.00;99877.84;4790461;29;20034;-91
2023/09/02 06:20:27;;;;;;;12.20;11.10;;;;;;;18.24;100.00;99860.91;4789618;29;20584;-90
2023/09/02 06:22:52;;;;;;;12.43;10.93;;;;;;;18.41;100.00;99876.31;4750385;30;20044;-89
2023/09/02 06:25:18;;;;;;;12.18;10.80;;;;;;;18.56;100.00;99888.34;4735535;30;20139;-90
2023/09/02 06:27:43;;;;;;;10.88;9.75;;;;;;;18.61;100.00;99891.47;4735767;30;20174;-89
2023/09/02 06:30:09;;;;;;;12.25;11.15;;;;;;;18.59;100.00;99882.84;4735666;30;20036;-89
2023/09/02 06:32:34;;;;;;;13.30;12.00;;;;;;;18.53;100.00;99878.03;4735189;30;20048;-90
2023/09/02 06:35:00;;;;;;;12.35;11.05;;;;;;;18.57;100.00;99887.38;4735648;30;20036;-89
2023/09/02 06:37:29;;;;;;;12.23;11.00;;;;;;;18.56;100.00;99880.44;4732418;30;20044;-91
2023/09/02 06:39:54;;;;;;;10.90;9.77;;;;;;;18.44;100.00;99870.81;4718005;30;20169;-90
2023/09/02 06:42:19;;;;;;;11.90;10.90;;;;;;;18.62;100.00;99885.22;4732351;30;20554;-90
2023/09/02 06:44:47;;;;;;;11.38;10.27;;;;;;;18.55;100.00;99846.28;4717851;30;20072;-90
2023/09/02 06:47:13;;;;;;;11.20;10.20;;;;;;;19.00;100.00;99902.59;4732554;30;20045;-90
2023/09/02 06:49:39;;;;;;;11.40;10.30;;;;;;;19.12;100.00;99901.63;4732108;30;20048;-90
2023/09/02 06:52:04;;;;;;;12.25;11.15;;;;;;;19.28;100.00;99903.91;4732555;30;20044;-91
2023/09/02 06:54:30;;;;;;;10.48;9.38;;;;;;;19.52;100.00;99895.03;4744540;30;20194;-91
2023/09/02 06:56:55;;;;;;;10.93;9.85;;;;;;;19.77;100.00;99897.41;4752783;30;20075;-90
2023/09/02 06:59:20;;;;;;;11.85;9.40;;;;;;;20.25;100.00;99899.63;4752762;30;20089;-91
2023/09/02 07:01:46;;;;;;;11.27;9.88;;;;;;;20.62;100.00;99910.66;4752911;30;20051;-91
2023/09/02 07:04:11;;;;;;;10.73;9.80;;;;;;;20.80;100.00;99918.84;4752688;30;20494;-90
2023/09/02 07:06:36;;;;;;;9.85;8.95;;;;;;;20.54;100.00;99888.47;4752198;30;20512;-90
2023/09/02 07:09:02;;;;;;;10.25;9.18;;;;;;;20.54;100.00;99909.63;4780261;29;20125;-89
2023/09/02 07:11:27;;;;;;;9.68;8.70;;;;;;;20.89;100.00;99919.88;4789233;29;20081;-89
2023/09/02 07:13:53;;;;;;;8.93;8.13;;;;;;;21.53;100.00;99921.44;4804335;29;20034;-90
2023/09/02 07:16:19;;;;;;;9.93;8.93;;;;;;;21.85;100.00;99913.28;4805473;29;20074;-89
2023/09/02 07:18:45;;;;;;;8.85;8.05;;;;;;;21.82;100.00;99924.16;4805559;29;20501;-90
2023/09/02 07:21:11;;;;;;;8.60;7.85;;;;;;;21.60;100.00;99912.81;4767118;30;20136;-89
2023/09/02 07:23:36;;;;;;;8.18;7.40;;;;;;;21.68;100.00;99905.00;4752304;30;20054;-89
2023/09/02 07:26:05;;;;;;;7.45;6.75;;;;;;;22.14;100.00;99923.94;4752395;30;20090;-89
2023/09/02 07:28:31;;;;;;;8.45;7.75;;;;;;;23.06;100.00;99932.25;4751815;30;20039;-90
2023/09/02 07:31:05;;;;;;;8.18;6.65;;;;;;;23.79;99.23;99904.91;4751534;30;20044;-90
2023/09/02 07:33:31;;;;;;;6.00;5.38;;;;;;;25.21;97.28;99930.56;4751720;30;20615;-92
2023/09/02 07:35:57;;;;;;;5.85;5.45;;;;;;;25.62;90.21;99909.41;4752047;30;20074;-91
2023/09/02 07:38:23;;;;;;;6.00;5.40;;;;;;;25.59;89.52;99925.75;4752088;30;20051;-90
2023/09/02 07:40:49;;;;;;;6.05;5.53;;;;;;;25.53;90.27;99937.88;4751859;30;20153;-91
2023/09/02 07:43:14;;;;;;;6.18;5.15;;;;;;;26.19;85.64;99930.91;4752008;30;20027;-90
2023/09/02 07:45:40;;;;;;;5.60;5.18;;;;;;;26.12;84.84;99932.56;4748741;30;20113;-90
2023/09/02 07:48:05;;;;;;;5.43;4.93;;;;;;;26.22;84.46;99935.91;4750249;30;20040;-90
2023/09/02 07:50:30;;;;;;;6.43;5.53;;;;;;;27.23;81.33;99940.88;4733808;30;20185;-90
2023/09/02 07:52:56;;;;;;;6.75;5.90;;;;;;;28.45;77.74;99949.31;4748758;30;20043;-90
2023/09/02 07:55:23;;;;;;;6.53;5.03;;;;;;;29.15;76.62;99956.22;4751784;30;20044;-91
2023/09/02 07:57:48;;;;;;;5.63;5.13;;;;;;;28.99;74.45;99955.38;4752121;30;20038;-90
2023/09/02 08:00:14;;;;;;;5.43;4.90;;;;;;;27.97;75.86;99951.28;4751816;30;20052;-90
2023/09/02 08:02:39;;;;;;;5.43;4.93;;;;;;;26.93;77.71;99941.59;4751630;30;20150;-89
2023/09/02 08:05:05;;;;;;;7.50;4.78;;;;;;;26.09;80.50;99954.25;4751819;30;20052;-89
2023/09/02 08:07:31;;;;;;;5.38;4.88;;;;;;;25.48;83.06;99937.53;4751615;30;20032;-89
2023/09/02 08:09:56;;;;;;;5.20;4.70;;;;;;;25.35;84.73;99950.47;4751706;30;20047;-91
2023/09/02 08:12:22;;;;;;;6.32;5.03;;;;;;;25.03;84.59;99925.28;4751882;30;20039;-90
2023/09/02 08:14:47;;;;;;;5.68;4.97;;;;;;;24.89;85.37;99940.00;4751313;30;20138;-91
2023/09/02 08:17:14;;;;;;;6.18;5.57;;;;;;;24.85;86.55;99953.78;4765510;30;20095;-90
2023/09/02 08:19:39;;;;;;;5.53;4.95;;;;;;;24.88;87.64;99969.47;4770150;30;20513;-90
2023/09/02 08:22:04;;;;;;;8.75;5.43;;;;;;;24.68;88.65;99966.16;4770517;30;20034;-90
2023/09/02 08:24:30;;;;;;;5.80;5.30;;;;;;;24.69;89.16;99978.47;4770274;30;20039;-89
2023/09/02 08:26:55;;;;;;;6.97;5.35;;;;;;;24.57;87.91;99985.06;4786366;30;20035;-90
2023/09/02 08:29:21;;;;;;;6.13;5.53;;;;;;;24.47;89.07;99982.47;4770653;30;20139;-89
2023/09/02 08:31:52;;;;;;;5.53;4.95;;;;;;;24.23;89.30;99942.25;4770279;30;20024;-90
2023/09/02 08:34:18;;;;;;;5.43;5.03;;;;;;;24.49;89.79;99971.66;4770145;30;20047;-90
2023/09/02 08:36:43;;;;;;;5.70;4.50;;;;;;;24.62;90.11;99986.25;4769982;30;20039;-90
2023/09/02 08:39:08;;;;;;;5.75;5.03;;;;;;;24.56;90.21;99954.06;4770179;30;20035;-90
2023/09/02 08:41:37;;;;;;;6.00;5.50;;;;;;;24.82;89.30;99986.94;4770068;29;20058;-90
2023/09/02 08:44:03;;;;;;;6.43;5.75;;;;;;;24.81;89.43;99982.56;4773583;30;20035;-90
2023/09/02 08:46:31;;;;;;;5.82;4.85;;;;;;;24.83;88.91;99980.59;4773627;30;20114;-90
2023/09/02 08:48:58;;;;;;;6.35;5.22;;;;;;;24.82;88.17;99980.78;4774034;30;20035;-90
2023/09/02 08:51:25;;;;;;;5.35;4.93;;;;;;;24.65;88.16;99998.44;4734149;30;20190;-89
2023/09/02 08:53:54;;;;;;;5.25;4.72;;;;;;;24.15;88.24;99964.34;4734192;30;20052;-89
2023/09/02 08:56:21;;;;;;;5.65;5.15;;;;;;;24.06;89.14;100003.34;4734326;30;20576;-90
2023/09/02 08:58:47;;;;;;;4.90;4.50;;;;;;;23.70;90.26;100001.56;4719301;30;20041;-90
2023/09/02 09:01:19;;;;;;;6.50;5.00;;;;;;;23.36;90.51;100018.03;4719556;30;20048;-89
2023/09/02 09:03:46;;;;;;;;;;;;;;;23.00;90.58;100016.97;4734394;30;20124;-89
2023/09/02 09:06:12;;;;;;;5.13;4.63;;;;;;;22.64;91.28;99998.13;4748955;30;20017;-90
2023/09/02 09:08:38;;;;;;;4.25;3.88;;;;;;;22.43;92.23;99982.34;4719088;30;20041;-90
2023/09/02 09:11:06;;;;;;;3.97;3.67;;;;;;;22.53;93.34;100003.56;4724914;30;20044;-91
2023/09/02 09:13:34;;;;;;;6.70;4.22;;;;;;;22.66;93.92;100020.88;4750000;30;20444;-90
2023/09/02 09:16:01;;;;;;;4.80;4.35;;;;;;;22.69;93.67;100022.44;4750231;30;20503;-90
2023/09/02 09:18:27;;;;;;;5.07;3.65;;;;;;;22.65;90.67;100008.59;4750002;30;20458;-91
2023/09/02 09:20:53;;;;;;;4.47;3.78;;;;;;;22.66;90.93;100018.22;4750774;30;20157;-90
2023/09/02 09:23:19;;;;;;;6.07;4.07;;;;;;;22.63;89.19;100018.53;4765330;30;20043;-89
2023/09/02 09:25:49;;;;;;;4.65;3.90;;;;;;;22.46;87.88;99995.34;4772646;30;20040;-90
2023/09/02 09:28:15;;;;;;;5.38;4.43;;;;;;;22.62;90.57;100016.00;4773154;30;20031;-90
2023/09/02 09:30:40;;;;;;;4.43;4.03;;;;;;;22.74;88.31;100022.00;4772688;30;20046;-89
2023/09/02 09:33:06;;;;;;;4.60;3.72;;;;;;;22.75;90.54;100021.03;4773321;30;20031;-90
2023/09/02 09:35:32;;;;;;;4.03;3.63;;;;;;;22.84;92.60;100025.53;4772764;30;20047;-91
2023/09/02 09:37:59;;;;;;;5.38;4.22;;;;;;;22.94;91.95;100033.50;4773381;30;20081;-91
2023/09/02 09:40:35;;;;;;;3.92;3.53;;;;;;;22.88;90.77;100030.41;4773209;30;20027;-91
2023/09/02 09:43:02;;;;;;;5.32;4.50;;;;;;;22.74;90.06;100011.41;4773116;30;20035;-90
2023/09/02 09:45:29;;;;;;;4.97;3.88;;;;;;;22.78;90.40;100039.34;4772842;30;20038;-91
2023/09/02 09:48:08;;;;;;;4.65;4.00;;;;;;;22.70;91.31;100041.84;4772991;30;20397;-92
2023/09/02 09:50:33;;;;;;;4.35;3.95;;;;;;;22.66;91.99;100028.03;4772755;30;20039;-90
2023/09/02 09:53:09;;;;;;;4.72;4.15;;;;;;;22.75;90.52;100036.97;4773181;30;20058;-91
2023/09/02 09:55:36;;;;;;;5.75;3.95;;;;;;;22.86;89.03;100031.50;4749769;30;20517;-90
2023/09/02 09:58:02;;;;;;;5.07;3.97;;;;;;;22.89;88.96;100040.03;4736178;30;20086;-90
2023/09/02 10:00:29;;;;;;;4.22;3.80;;;;;;;22.96;90.95;100031.53;4735686;30;20044;-90
2023/09/02 10:02:56;;;;;;;5.60;4.10;;;;;;;23.09;90.33;100046.22;4736148;30;20036;-90
2023/09/02 10:05:29;;;;;;;4.50;4.15;;;;;;;23.15;89.61;100042.97;4736271;30;20410;-91
2023/09/02 10:08:03;;;;;;;6.68;4.47;;;;;;;22.94;88.55;100006.94;4736325;30;20423;-90
2023/09/02 10:10:33;;;;;;;4.70;4.18;;;;;;;23.28;88.97;100039.19;4735752;30;20083;-90
2023/09/02 10:12:59;;;;;;;6.15;4.07;;;;;;;23.35;87.52;100046.44;4735816;30;20041;-91
2023/09/02 10:15:26;;;;;;;5.50;5.00;;;;;;;23.33;88.31;100037.75;4735766;30;20051;-91
2023/09/02 10:17:54;;;;;;;17.08;7.43;;;;;;;23.47;89.01;100052.44;4735980;30;20032;-90
2023/09/02 10:20:21;;;;;;;6.00;4.47;;;;;;;23.57;89.79;100050.56;4753239;30;20077;-90
2023/09/02 10:22:48;;;;;;;5.97;4.30;;;;;;;23.40;88.72;100019.41;4754448;30;20122;-91
2023/09/02 10:25:24;;;;;;;5.00;4.50;;;;;;;23.60;89.67;100054.75;4753934;30;20043;-91
2023/09/02 10:28:00;;;;;;;5.72;4.85;;;;;;;23.50;85.46;100030.84;4773170;30;20497;-91
2023/09/02 10:30:43;;;;;;;5.25;4.25;;;;;;;23.68;87.29;100038.09;4774043;30;20039;-91
2023/09/02 10:33:31;;;;;;;5.70;4.68;;;;;;;23.92;87.98;100057.03;4772550;30;20152;-90
2023/09/02 10:36:00;;;;;;;12.25;5.32;;;;;;;24.09;87.60;100061.56;4772183;29;20049;-92
2023/09/02 10:38:36;;;;;;;5.32;4.82;;;;;;;24.28;85.62;100068.59;4787268;30;20425;-92
2023/09/02 10:41:14;;;;;;;7.88;5.20;;;;;;;24.29;84.79;100067.63;4772345;30;20067;-91
2023/09/02 10:43:40;;;;;;;6.57;4.90;;;;;;;24.12;84.36;100057.78;4772126;30;20035;-91
2023/09/02 10:46:08;;;;;;;7.78;5.65;;;;;;;24.13;84.89;100083.38;4769383;30;20080;-91
2023/09/02 10:48:35;;;;;;;5.43;4.90;;;;;;;23.96;85.34;100074.38;4761223;30;20040;-90
2023/09/02 10:51:02;;;;;;;7.57;5.95;;;;;;;23.38;83.97;100003.59;4735195;30;20616;-90
2023/09/02 10:53:53;;;;;;;5.38;4.88;;;;;;;23.65;84.88;100074.63;4718777;30;20053;-91
2023/09/02 10:56:31;;;;;;;5.22;4.72;;;;;;;23.59;85.88;100074.34;4724754;30;20502;-91
2023/09/02 10:58:58;;;;;;;7.57;5.38;;;;;;;23.62;86.15;100066.91;4737179;30;20082;-91
2023/09/02 11:01:24;;;;;;;8.00;5.00;;;;;;;23.73;87.21;100062.44;4736836;30;20044;-90
2023/09/02 11:03:53;;;;;;;6.13;5.45;;;;;;;23.94;88.92;100080.84;4720956;30;20040;-91
2023/09/02 11:06:19;;;;;;;5.35;4.85;;;;;;;23.96;87.15;100079.69;4734730;30;20143;-90
2023/09/02 11:08:52;;;;;;;4.88;4.47;;;;;;;24.01;87.01;100082.75;4739824;30;20139;-91
2023/09/02 11:11:19;;;;;;;7.40;6.22;;;;;;;23.84;84.60;100081.69;4721814;30;20083;-91
2023/09/02 11:14:06;;;;;;;6.95;4.90;;;;;;;23.67;84.88;100082.47;4731900;30;20086;-90
2023/09/02 11:16:31;;;;;;;7.60;5.38;;;;;;;23.37;85.57;100064.88;4725203;30;20430;-90
2023/09/02 11:18:58;;;;;;;5.85;5.15;;;;;;;23.23;86.99;100082.13;4742756;30;20056;-91
2023/09/02 11:21:38;;;;;;;6.60;5.95;;;;;;;23.05;88.00;100089.13;4754071;30;20112;-91
2023/09/02 11:24:25;;;;;;;6.47;5.30;;;;;;;22.95;88.95;100082.97;4767800;30;20040;-92
2023/09/02 11:26:58;;;;;;;6.38;5.68;;;;;;;22.96;88.25;100079.34;4764138;30;20039;-91